Terminal Aerodrome Forecast
Issued by NWS

Home | Current Version | Previous Version | Text Only | Print | Product List | Glossary On
Versions: 1 2 3 4 5 6 7 8 9 10 11 12 13 14 15 16 17 18 19 20 21 22 23 24 25 26 27
000
FTUS41 KPBZ 141551 AAB
TAFFKL
TAF AMD
KFKL 141551Z 1416/1512 33008KT P6SM -SHSN SCT015
      TEMPO 1416/1418 BKN015
     FM142300 29005KT P6SM BKN025
     FM150700 VRB05KT P6SM SCT025=

USA.gov is the U.S. government's official web portal to all federal, state and local government web resources and services.